TFM - Tactical Decision Aid (Experimental) INFO Settings
ID: Runway Winds: CIG/VIS Threshold: METAR Board:

KMEI - Meridian-Key Field

Updated at: 1951 UTC 14 Aug 2018
Latest TAF at: 1737 UTC 14 Aug 2018

TAF Board

Time1858Z14/20Z14/21Z14/22Z14/23Z15/00Z15/01Z15/02Z15/03Z15/04Z15/05Z15/06Z15/07Z15/08Z
TypeOBSPRVLPRVLPRVLPRVLPRVLPRVLPRVLPRVLPRVLPRVLPRVLPRVLPRVL
VIS10>6>6>6>6>6>6>6>6>6>6>6>6>6
CIG----------------------------
CoverFEWSCTSCTSCTSCTSCTSCTSCTSCTSCTSCTSCTSCTSCT
FltCatVFRVFRVFRVFRVFRVFRVFRVFRVFRVFRVFRVFRVFRVFR
WX----------------------------
WDir340350350350350350350350350350350350350350
WSpd55555555555555
WGst----------------------------
TAF
KMEI 141737Z 1418/1518 35005KT P6SM FEW050 SCT200

METAR Board

Time 14/08Z 14/09Z 14/10Z 14/11Z 14/12Z 14/13Z 14/14Z 14/15Z 14/16Z 14/17Z 14/18Z 14/19Z
Temp74 73 75 74 75 76 80 84 88 90 92 93
Dewpt71 71 72 72 72 72 73 70 72 72 72 72
Altim30.02 30.02 30.02 30.04 30.05 30.05 30.06 30.07 30.07 30.06 30.05 30.03
VIS7 10 10 10 10 10 10 10 10 10 10 10
CIG1 -- -- -- -- -- -- -- -- -- -- --
CoverBKNCLRCLRCLRCLRCLRCLRCLRCLRCLRSCTFEW
FltCatLIFRVFRVFRVFRVFRVFRVFRVFRVFRVFRVFRVFR
WX------------------------
WDir00019000000330310340
WSpd0 0 0 4 0 0 0 0 3 5 5 5
WGst-- -- -- -- -- -- -- -- -- -- -- --
METAR
KMEI 140758Z AUTO 00000KT 7SM R01/5500VP6000FT BKN001 23/22 A3002 RMK AO2 SLP162 T02330217
KMEI 140858Z AUTO 00000KT 10SM CLR 23/22 A3002 RMK AO2 SLP161 T02280217 56004
KMEI 140958Z AUTO 00000KT 10SM CLR 24/22 A3002 RMK AO2 SLP162 T02390222
KMEI 141058Z 19004KT 10SM CLR 23/22 A3004 RMK AO2 SLP167 T02330222
KMEI 141158Z 00000KT 10SM CLR 24/22 A3005 RMK AO2 SLP172 T02390222 10239 20228 53010
KMEI 141258Z 00000KT 10SM CLR 24/22 A3005 RMK AO2 SLP173 T02440222
KMEI 141358Z 00000KT 10SM CLR 27/23 A3006 RMK AO2 SLP176 T02670228
KMEI 141458Z 00000KT 10SM CLR 29/21 A3007 RMK AO2 SLP177 T02890211 53006
KMEI 141558Z VRB03KT 10SM CLR 31/22 A3007 RMK AO2 SLP177 T03110222
KMEI 141658Z 33005KT 10SM CLR 32/22 A3006 RMK AO2 SLP175 T03220222
KMEI 141758Z 31005KT 10SM FEW036 FEW047 SCT055 33/22 A3005 RMK AO2 SLP170 T03330222 10333 20233 58006
KMEI 141858Z 34005KT 10SM FEW042 34/22 A3003 RMK AO2 SLP164 T03390222

TAF/METAR Board Legend

Potential Impact
  None Marginal Slight Moderate High
Visibility (sm) >5 3≤X≤5 2≤X<3 0.5≤X<2 <0.5
Ceiling (100 ft) >30 10≤X≤30 6≤X<10 2≤X<6 <2
Wind Speed (kt) <10 10≤X<20 20≤X<30 ≥30
Wind Gust (kt) <15 15≤X<25 25≤X<35 ≥35
Weather No Wx Reported VCTS -TS,-FZRA TS,FZRA +TS,+FZRA




Page loaded:  19:51 UTC  |   12:51 PM Pacific  |   01:51 PM Mountain  |   02:51 PM Central  |   03:51 PM Eastern

 

ADVISORIES

FORECASTS

FORECASTS

OBSERVATIONS

USER TOOLS

ABOUT US